sensor_id;sensor_type;location;lat;lon;timestamp;temperature;humidity
10911;DHT22;5508;49.150;11.030;2023-10-08T00:01:53;15.30;68.30
10911;DHT22;5508;49.150;11.030;2023-10-08T00:04:56;15.30;69.20
10911;DHT22;5508;49.150;11.030;2023-10-08T00:07:56;15.30;69.20
10911;DHT22;5508;49.150;11.030;2023-10-08T00:10:57;15.40;68.30
10911;DHT22;5508;49.150;11.030;2023-10-08T00:13:59;15.40;68.20
10911;DHT22;5508;49.150;11.030;2023-10-08T00:17:01;15.40;68.20
10911;DHT22;5508;49.150;11.030;2023-10-08T00:20:02;15.50;68.50
10911;DHT22;5508;49.150;11.030;2023-10-08T00:23:04;15.40;68.10
10911;DHT22;5508;49.150;11.030;2023-10-08T00:26:08;15.40;68.80
10911;DHT22;5508;49.150;11.030;2023-10-08T00:29:09;15.60;67.80
10911;DHT22;5508;49.150;11.030;2023-10-08T00:32:16;15.60;68.40
10911;DHT22;5508;49.150;11.030;2023-10-08T00:35:17;15.70;68.50
10911;DHT22;5508;49.150;11.030;2023-10-08T00:38:20;15.60;68.50
10911;DHT22;5508;49.150;11.030;2023-10-08T00:41:21;15.50;68.80
10911;DHT22;5508;49.150;11.030;2023-10-08T00:44:22;15.50;69.20
10911;DHT22;5508;49.150;11.030;2023-10-08T00:47:23;15.50;69.70
10911;DHT22;5508;49.150;11.030;2023-10-08T00:50:26;15.40;70.60
10911;DHT22;5508;49.150;11.030;2023-10-08T00:53:42;15.40;70.00
10911;DHT22;5508;49.150;11.030;2023-10-08T00:56:46;15.40;70.10
10911;DHT22;5508;49.150;11.030;2023-10-08T00:59:54;15.30;71.20
10911;DHT22;5508;49.150;11.030;2023-10-08T01:02:59;15.30;70.70
10911;DHT22;5508;49.150;11.030;2023-10-08T01:06:02;15.30;71.20
10911;DHT22;5508;49.150;11.030;2023-10-08T01:09:04;15.20;71.10
10911;DHT22;5508;49.150;11.030;2023-10-08T01:12:18;15.40;70.20
10911;DHT22;5508;49.150;11.030;2023-10-08T01:15:34;15.40;71.30
10911;DHT22;5508;49.150;11.030;2023-10-08T01:18:37;15.40;70.50
10911;DHT22;5508;49.150;11.030;2023-10-08T01:21:43;15.50;69.30
10911;DHT22;5508;49.150;11.030;2023-10-08T01:24:45;15.40;70.20
10911;DHT22;5508;49.150;11.030;2023-10-08T01:27:49;15.40;69.40
10911;DHT22;5508;49.150;11.030;2023-10-08T01:30:50;15.50;69.10
10911;DHT22;5508;49.150;11.030;2023-10-08T01:33:54;15.50;69.10
10911;DHT22;5508;49.150;11.030;2023-10-08T01:36:57;15.50;69.40
10911;DHT22;5508;49.150;11.030;2023-10-08T01:40:05;15.30;70.20
10911;DHT22;5508;49.150;11.030;2023-10-08T01:43:06;15.30;69.60
10911;DHT22;5508;49.150;11.030;2023-10-08T01:46:08;15.30;70.60
10911;DHT22;5508;49.150;11.030;2023-10-08T01:49:12;15.10;70.90
10911;DHT22;5508;49.150;11.030;2023-10-08T01:52:14;15.10;72.10
10911;DHT22;5508;49.150;11.030;2023-10-08T01:55:21;14.90;72.00
10911;DHT22;5508;49.150;11.030;2023-10-08T01:58:23;14.80;74.00
10911;DHT22;5508;49.150;11.030;2023-10-08T02:01:23;14.70;74.80
10911;DHT22;5508;49.150;11.030;2023-10-08T02:04:24;14.60;75.10
10911;DHT22;5508;49.150;11.030;2023-10-08T02:07:25;14.70;73.90
10911;DHT22;5508;49.150;11.030;2023-10-08T02:10:26;14.80;73.30
10911;DHT22;5508;49.150;11.030;2023-10-08T02:13:27;14.70;73.50
10911;DHT22;5508;49.150;11.030;2023-10-08T02:16:27;14.60;74.40
10911;DHT22;5508;49.150;11.030;2023-10-08T02:19:28;14.60;75.70
10911;DHT22;5508;49.150;11.030;2023-10-08T02:22:28;14.50;75.40
10911;DHT22;5508;49.150;11.030;2023-10-08T02:25:29;14.50;76.00
10911;DHT22;5508;49.150;11.030;2023-10-08T02:28:30;14.50;75.80
10911;DHT22;5508;49.150;11.030;2023-10-08T02:31:30;14.60;75.30
10911;DHT22;5508;49.150;11.030;2023-10-08T02:34:31;14.50;76.30
10911;DHT22;5508;49.150;11.030;2023-10-08T02:37:32;14.50;76.40
10911;DHT22;5508;49.150;11.030;2023-10-08T02:40:37;14.40;77.30
10911;DHT22;5508;49.150;11.030;2023-10-08T02:43:38;14.20;79.60
10911;DHT22;5508;49.150;11.030;2023-10-08T02:46:44;14.20;77.60
10911;DHT22;5508;49.150;11.030;2023-10-08T02:49:47;14.20;78.40
10911;DHT22;5508;49.150;11.030;2023-10-08T02:52:52;14.10;79.30
10911;DHT22;5508;49.150;11.030;2023-10-08T02:55:53;14.00;80.70
10911;DHT22;5508;49.150;11.030;2023-10-08T02:58:54;13.90;79.50
10911;DHT22;5508;49.150;11.030;2023-10-08T03:01:55;13.90;79.90
10911;DHT22;5508;49.150;11.030;2023-10-08T03:04:56;13.90;80.50
10911;DHT22;5508;49.150;11.030;2023-10-08T03:07:57;13.80;79.80
10911;DHT22;5508;49.150;11.030;2023-10-08T03:10:58;13.80;80.60
10911;DHT22;5508;49.150;11.030;2023-10-08T03:14:05;13.70;82.10
10911;DHT22;5508;49.150;11.030;2023-10-08T03:17:15;13.80;80.70
10911;DHT22;5508;49.150;11.030;2023-10-08T03:20:20;13.80;80.00
10911;DHT22;5508;49.150;11.030;2023-10-08T03:23:38;13.90;79.20
10911;DHT22;5508;49.150;11.030;2023-10-08T03:26:44;14.10;78.90
10911;DHT22;5508;49.150;11.030;2023-10-08T03:29:46;14.10;78.80
10911;DHT22;5508;49.150;11.030;2023-10-08T03:32:47;14.10;78.70
10911;DHT22;5508;49.150;11.030;2023-10-08T03:35:56;14.20;78.10
10911;DHT22;5508;49.150;11.030;2023-10-08T03:38:56;14.10;79.00
10911;DHT22;5508;49.150;11.030;2023-10-08T03:41:58;14.10;78.90
10911;DHT22;5508;49.150;11.030;2023-10-08T03:45:07;14.00;79.10
10911;DHT22;5508;49.150;11.030;2023-10-08T03:48:11;13.90;80.80
10911;DHT22;5508;49.150;11.030;2023-10-08T03:51:15;13.90;81.00
10911;DHT22;5508;49.150;11.030;2023-10-08T03:54:20;13.80;82.30
10911;DHT22;5508;49.150;11.030;2023-10-08T03:57:30;13.70;83.10
10911;DHT22;5508;49.150;11.030;2023-10-08T04:00:43;13.80;80.40
10911;DHT22;5508;49.150;11.030;2023-10-08T04:03:46;13.70;81.00
10911;DHT22;5508;49.150;11.030;2023-10-08T04:06:52;13.70;81.60
10911;DHT22;5508;49.150;11.030;2023-10-08T04:09:57;13.70;82.10
10911;DHT22;5508;49.150;11.030;2023-10-08T04:13:21;13.60;82.90
10911;DHT22;5508;49.150;11.030;2023-10-08T04:16:21;13.60;83.00
10911;DHT22;5508;49.150;11.030;2023-10-08T04:19:23;13.60;83.50
10911;DHT22;5508;49.150;11.030;2023-10-08T04:22:29;13.50;84.90
10911;DHT22;5508;49.150;11.030;2023-10-08T04:25:31;13.50;85.30
10911;DHT22;5508;49.150;11.030;2023-10-08T04:28:32;13.40;86.20
10911;DHT22;5508;49.150;11.030;2023-10-08T04:31:35;13.40;87.40
10911;DHT22;5508;49.150;11.030;2023-10-08T04:34:39;13.40;87.00
10911;DHT22;5508;49.150;11.030;2023-10-08T04:37:46;13.40;85.70
10911;DHT22;5508;49.150;11.030;2023-10-08T04:40:52;13.60;83.50
10911;DHT22;5508;49.150;11.030;2023-10-08T04:43:53;13.60;84.20
10911;DHT22;5508;49.150;11.030;2023-10-08T04:46:56;13.70;82.80
10911;DHT22;5508;49.150;11.030;2023-10-08T04:49:56;13.70;83.90
10911;DHT22;5508;49.150;11.030;2023-10-08T04:52:57;13.60;84.90
10911;DHT22;5508;49.150;11.030;2023-10-08T04:56:01;13.60;84.20
10911;DHT22;5508;49.150;11.030;2023-10-08T04:59:13;13.50;84.80
10911;DHT22;5508;49.150;11.030;2023-10-08T05:02:14;13.40;85.50
10911;DHT22;5508;49.150;11.030;2023-10-08T05:05:21;13.40;85.10
10911;DHT22;5508;49.150;11.030;2023-10-08T05:08:22;13.40;85.10
10911;DHT22;5508;49.150;11.030;2023-10-08T05:11:33;13.40;85.20
10911;DHT22;5508;49.150;11.030;2023-10-08T05:14:52;13.40;85.60
10911;DHT22;5508;49.150;11.030;2023-10-08T05:18:11;13.40;85.50
10911;DHT22;5508;49.150;11.030;2023-10-08T05:21:11;13.50;85.30
10911;DHT22;5508;49.150;11.030;2023-10-08T05:24:26;13.50;84.90
10911;DHT22;5508;49.150;11.030;2023-10-08T05:27:43;13.60;84.50
10911;DHT22;5508;49.150;11.030;2023-10-08T05:30:49;13.70;83.70
10911;DHT22;5508;49.150;11.030;2023-10-08T05:33:55;13.70;84.10
10911;DHT22;5508;49.150;11.030;2023-10-08T05:37:14;13.70;84.30
10911;DHT22;5508;49.150;11.030;2023-10-08T05:40:32;13.70;83.90
10911;DHT22;5508;49.150;11.030;2023-10-08T05:43:51;13.70;83.60
10911;DHT22;5508;49.150;11.030;2023-10-08T05:47:13;13.70;84.30
10911;DHT22;5508;49.150;11.030;2023-10-08T05:50:32;13.60;85.20
10911;DHT22;5508;49.150;11.030;2023-10-08T05:53:39;13.60;85.30
10911;DHT22;5508;49.150;11.030;2023-10-08T05:56:49;13.60;85.30
10911;DHT22;5508;49.150;11.030;2023-10-08T06:00:07;13.50;85.10
10911;DHT22;5508;49.150;11.030;2023-10-08T06:03:08;13.60;84.60
10911;DHT22;5508;49.150;11.030;2023-10-08T06:06:22;13.60;84.40
10911;DHT22;5508;49.150;11.030;2023-10-08T06:09:23;13.60;84.20
10911;DHT22;5508;49.150;11.030;2023-10-08T06:12:35;13.70;84.40
10911;DHT22;5508;49.150;11.030;2023-10-08T06:15:50;13.70;84.60
10911;DHT22;5508;49.150;11.030;2023-10-08T06:18:57;13.70;84.30
10911;DHT22;5508;49.150;11.030;2023-10-08T06:21:57;13.70;84.10
10911;DHT22;5508;49.150;11.030;2023-10-08T06:24:58;13.70;84.80
10911;DHT22;5508;49.150;11.030;2023-10-08T06:28:17;13.70;84.20
10911;DHT22;5508;49.150;11.030;2023-10-08T06:31:21;13.80;83.60
10911;DHT22;5508;49.150;11.030;2023-10-08T06:34:25;13.90;84.40
10911;DHT22;5508;49.150;11.030;2023-10-08T06:37:28;13.90;84.20
10911;DHT22;5508;49.150;11.030;2023-10-08T06:40:28;13.80;84.40
10911;DHT22;5508;49.150;11.030;2023-10-08T06:43:36;13.90;84.40
10911;DHT22;5508;49.150;11.030;2023-10-08T06:46:37;13.90;84.00
10911;DHT22;5508;49.150;11.030;2023-10-08T06:49:37;13.90;84.60
10911;DHT22;5508;49.150;11.030;2023-10-08T06:52:39;13.90;84.90
10911;DHT22;5508;49.150;11.030;2023-10-08T06:55:44;14.00;85.10
10911;DHT22;5508;49.150;11.030;2023-10-08T06:58:45;14.10;85.10
10911;DHT22;5508;49.150;11.030;2023-10-08T07:01:53;14.20;84.50
10911;DHT22;5508;49.150;11.030;2023-10-08T07:04:54;14.20;83.90
10911;DHT22;5508;49.150;11.030;2023-10-08T07:07:54;14.20;85.50
10911;DHT22;5508;49.150;11.030;2023-10-08T07:10:55;14.10;86.60
10911;DHT22;5508;49.150;11.030;2023-10-08T07:13:57;14.10;84.80
10911;DHT22;5508;49.150;11.030;2023-10-08T07:16:59;14.10;85.10
10911;DHT22;5508;49.150;11.030;2023-10-08T07:20:00;14.20;85.30
10911;DHT22;5508;49.150;11.030;2023-10-08T07:23:10;14.20;86.20
10911;DHT22;5508;49.150;11.030;2023-10-08T07:26:19;14.20;85.60
10911;DHT22;5508;49.150;11.030;2023-10-08T07:29:24;14.30;86.30
10911;DHT22;5508;49.150;11.030;2023-10-08T07:32:25;14.30;86.20
10911;DHT22;5508;49.150;11.030;2023-10-08T07:35:26;14.40;86.40
10911;DHT22;5508;49.150;11.030;2023-10-08T07:38:30;14.40;86.50
10911;DHT22;5508;49.150;11.030;2023-10-08T07:41:30;14.50;86.00
10911;DHT22;5508;49.150;11.030;2023-10-08T07:44:31;14.50;85.90
10911;DHT22;5508;49.150;11.030;2023-10-08T07:47:32;14.50;85.50
10911;DHT22;5508;49.150;11.030;2023-10-08T07:50:33;14.60;85.40
10911;DHT22;5508;49.150;11.030;2023-10-08T07:53:34;14.60;85.20
10911;DHT22;5508;49.150;11.030;2023-10-08T07:56:37;14.70;84.40
10911;DHT22;5508;49.150;11.030;2023-10-08T07:59:39;14.70;84.50
10911;DHT22;5508;49.150;11.030;2023-10-08T08:03:01;14.80;85.40
10911;DHT22;5508;49.150;11.030;2023-10-08T08:06:06;14.90;85.40
10911;DHT22;5508;49.150;11.030;2023-10-08T08:09:07;15.00;84.90
10911;DHT22;5508;49.150;11.030;2023-10-08T08:12:22;15.10;85.10
10911;DHT22;5508;49.150;11.030;2023-10-08T08:15:25;15.10;85.20
10911;DHT22;5508;49.150;11.030;2023-10-08T08:18:27;15.20;84.70
10911;DHT22;5508;49.150;11.030;2023-10-08T08:21:33;15.30;84.10
10911;DHT22;5508;49.150;11.030;2023-10-08T08:24:33;15.50;84.00
10911;DHT22;5508;49.150;11.030;2023-10-08T08:27:37;15.50;82.40
10911;DHT22;5508;49.150;11.030;2023-10-08T08:30:39;15.70;83.00
10911;DHT22;5508;49.150;11.030;2023-10-08T08:33:41;15.90;81.80
10911;DHT22;5508;49.150;11.030;2023-10-08T08:36:53;16.10;79.80
10911;DHT22;5508;49.150;11.030;2023-10-08T08:39:57;16.20;79.40
10911;DHT22;5508;49.150;11.030;2023-10-08T08:42:59;16.30;79.90
10911;DHT22;5508;49.150;11.030;2023-10-08T08:46:03;16.30;78.40
10911;DHT22;5508;49.150;11.030;2023-10-08T08:49:08;16.50;79.10
10911;DHT22;5508;49.150;11.030;2023-10-08T08:52:08;16.80;78.20
10911;DHT22;5508;49.150;11.030;2023-10-08T08:55:09;17.20;76.40
10911;DHT22;5508;49.150;11.030;2023-10-08T08:58:14;17.40;76.70
10911;DHT22;5508;49.150;11.030;2023-10-08T09:01:17;17.60;74.40
10911;DHT22;5508;49.150;11.030;2023-10-08T09:04:28;17.80;73.20
10911;DHT22;5508;49.150;11.030;2023-10-08T09:07:30;17.60;72.50
10911;DHT22;5508;49.150;11.030;2023-10-08T09:10:33;17.50;73.40
10911;DHT22;5508;49.150;11.030;2023-10-08T09:13:37;17.20;73.80
10911;DHT22;5508;49.150;11.030;2023-10-08T09:16:38;17.20;75.30
10911;DHT22;5508;49.150;11.030;2023-10-08T09:19:39;17.10;75.80
10911;DHT22;5508;49.150;11.030;2023-10-08T09:22:39;17.00;75.20
10911;DHT22;5508;49.150;11.030;2023-10-08T09:25:42;16.80;76.30
10911;DHT22;5508;49.150;11.030;2023-10-08T09:28:46;16.70;76.30
10911;DHT22;5508;49.150;11.030;2023-10-08T09:31:56;16.60;77.40
10911;DHT22;5508;49.150;11.030;2023-10-08T09:34:57;16.60;76.50
10911;DHT22;5508;49.150;11.030;2023-10-08T09:38:01;16.60;77.00
10911;DHT22;5508;49.150;11.030;2023-10-08T09:41:03;16.60;77.60
10911;DHT22;5508;49.150;11.030;2023-10-08T09:44:05;16.60;77.30
10911;DHT22;5508;49.150;11.030;2023-10-08T09:47:10;16.50;77.80
10911;DHT22;5508;49.150;11.030;2023-10-08T09:50:12;16.50;77.80
10911;DHT22;5508;49.150;11.030;2023-10-08T09:53:14;16.50;77.50
10911;DHT22;5508;49.150;11.030;2023-10-08T09:56:20;16.50;78.00
10911;DHT22;5508;49.150;11.030;2023-10-08T09:59:21;16.50;78.20
10911;DHT22;5508;49.150;11.030;2023-10-08T10:02:22;16.50;78.40
10911;DHT22;5508;49.150;11.030;2023-10-08T10:05:30;16.60;78.60
10911;DHT22;5508;49.150;11.030;2023-10-08T10:08:32;16.70;76.90
10911;DHT22;5508;49.150;11.030;2023-10-08T10:11:36;16.80;77.30
10911;DHT22;5508;49.150;11.030;2023-10-08T10:14:45;17.00;75.30
10911;DHT22;5508;49.150;11.030;2023-10-08T10:17:47;17.30;75.10
10911;DHT22;5508;49.150;11.030;2023-10-08T10:21:45;17.50;75.20
10911;DHT22;5508;49.150;11.030;2023-10-08T10:24:35;17.70;74.50
10911;DHT22;5508;49.150;11.030;2023-10-08T10:27:37;17.80;74.50
10911;DHT22;5508;49.150;11.030;2023-10-08T10:30:39;17.90;73.40
10911;DHT22;5508;49.150;11.030;2023-10-08T10:33:41;17.90;73.00
10911;DHT22;5508;49.150;11.030;2023-10-08T10:36:48;18.10;73.40
10911;DHT22;5508;49.150;11.030;2023-10-08T10:39:55;17.90;71.80
10911;DHT22;5508;49.150;11.030;2023-10-08T10:43:00;18.00;72.90
10911;DHT22;5508;49.150;11.030;2023-10-08T10:46:01;18.10;72.20
10911;DHT22;5508;49.150;11.030;2023-10-08T10:49:30;18.00;72.80
10911;DHT22;5508;49.150;11.030;2023-10-08T10:52:37;17.90;72.60
10911;DHT22;5508;49.150;11.030;2023-10-08T10:55:53;18.00;72.20
10911;DHT22;5508;49.150;11.030;2023-10-08T10:59:03;17.90;71.40
10911;DHT22;5508;49.150;11.030;2023-10-08T11:02:19;17.90;72.90
10911;DHT22;5508;49.150;11.030;2023-10-08T11:05:32;17.90;71.20
10911;DHT22;5508;49.150;11.030;2023-10-08T11:08:37;17.90;72.40
10911;DHT22;5508;49.150;11.030;2023-10-08T11:11:38;17.80;72.30
10911;DHT22;5508;49.150;11.030;2023-10-08T11:14:46;17.90;71.20
10911;DHT22;5508;49.150;11.030;2023-10-08T11:17:47;17.70;73.40
10911;DHT22;5508;49.150;11.030;2023-10-08T11:20:50;17.80;73.40
10911;DHT22;5508;49.150;11.030;2023-10-08T11:24:03;18.00;71.90
10911;DHT22;5508;49.150;11.030;2023-10-08T11:27:10;17.90;70.90
10911;DHT22;5508;49.150;11.030;2023-10-08T11:30:16;18.00;71.30
10911;DHT22;5508;49.150;11.030;2023-10-08T11:33:18;18.10;72.10
10911;DHT22;5508;49.150;11.030;2023-10-08T11:36:18;18.20;70.90
10911;DHT22;5508;49.150;11.030;2023-10-08T11:39:19;18.30;70.20
10911;DHT22;5508;49.150;11.030;2023-10-08T11:42:22;18.40;71.50
10911;DHT22;5508;49.150;11.030;2023-10-08T11:45:40;18.40;70.50
10911;DHT22;5508;49.150;11.030;2023-10-08T11:48:48;18.40;71.20
10911;DHT22;5508;49.150;11.030;2023-10-08T11:51:51;18.30;72.50
10911;DHT22;5508;49.150;11.030;2023-10-08T11:54:56;18.40;71.90
10911;DHT22;5508;49.150;11.030;2023-10-08T11:57:56;18.50;71.80
10911;DHT22;5508;49.150;11.030;2023-10-08T12:00:57;18.70;71.50
10911;DHT22;5508;49.150;11.030;2023-10-08T12:04:04;18.70;70.70
10911;DHT22;5508;49.150;11.030;2023-10-08T12:07:05;18.70;71.50
10911;DHT22;5508;49.150;11.030;2023-10-08T12:10:08;18.80;69.60
10911;DHT22;5508;49.150;11.030;2023-10-08T12:13:10;18.90;69.90
10911;DHT22;5508;49.150;11.030;2023-10-08T12:16:12;19.00;68.80
10911;DHT22;5508;49.150;11.030;2023-10-08T12:19:18;19.00;69.70
10911;DHT22;5508;49.150;11.030;2023-10-08T12:22:21;19.00;68.30
10911;DHT22;5508;49.150;11.030;2023-10-08T12:25:21;19.10;69.70
10911;DHT22;5508;49.150;11.030;2023-10-08T12:28:23;19.10;69.00
10911;DHT22;5508;49.150;11.030;2023-10-08T12:31:24;19.10;69.90
10911;DHT22;5508;49.150;11.030;2023-10-08T12:34:25;19.00;70.70
10911;DHT22;5508;49.150;11.030;2023-10-08T12:37:26;19.20;70.40
10911;DHT22;5508;49.150;11.030;2023-10-08T12:40:27;19.20;69.50
10911;DHT22;5508;49.150;11.030;2023-10-08T12:43:43;19.10;70.70
10911;DHT22;5508;49.150;11.030;2023-10-08T12:46:52;18.90;70.30
10911;DHT22;5508;49.150;11.030;2023-10-08T12:49:53;18.80;70.30
10911;DHT22;5508;49.150;11.030;2023-10-08T12:52:57;18.80;70.90
10911;DHT22;5508;49.150;11.030;2023-10-08T12:56:05;18.70;71.10
10911;DHT22;5508;49.150;11.030;2023-10-08T12:59:06;18.60;72.50
10911;DHT22;5508;49.150;11.030;2023-10-08T13:02:07;18.70;73.90
10911;DHT22;5508;49.150;11.030;2023-10-08T13:05:11;19.00;72.00
10911;DHT22;5508;49.150;11.030;2023-10-08T13:08:16;19.10;71.00
10911;DHT22;5508;49.150;11.030;2023-10-08T13:11:16;19.20;72.00
10911;DHT22;5508;49.150;11.030;2023-10-08T13:14:22;19.40;69.70
10911;DHT22;5508;49.150;11.030;2023-10-08T13:17:23;19.50;70.70
10911;DHT22;5508;49.150;11.030;2023-10-08T13:20:25;19.50;69.70
10911;DHT22;5508;49.150;11.030;2023-10-08T13:23:27;19.40;70.70
10911;DHT22;5508;49.150;11.030;2023-10-08T13:26:27;19.50;71.20
10911;DHT22;5508;49.150;11.030;2023-10-08T13:29:31;19.50;69.70
10911;DHT22;5508;49.150;11.030;2023-10-08T13:32:33;19.30;70.00
10911;DHT22;5508;49.150;11.030;2023-10-08T13:35:35;19.20;70.20
10911;DHT22;5508;49.150;11.030;2023-10-08T13:38:36;19.10;72.20
10911;DHT22;5508;49.150;11.030;2023-10-08T13:41:37;19.20;71.00
10911;DHT22;5508;49.150;11.030;2023-10-08T13:44:38;19.20;71.00
10911;DHT22;5508;49.150;11.030;2023-10-08T13:47:39;19.10;71.30
10911;DHT22;5508;49.150;11.030;2023-10-08T13:50:40;19.10;71.90
10911;DHT22;5508;49.150;11.030;2023-10-08T13:53:42;19.10;73.80
10911;DHT22;5508;49.150;11.030;2023-10-08T13:56:45;19.10;72.20
10911;DHT22;5508;49.150;11.030;2023-10-08T13:59:48;19.10;72.60
10911;DHT22;5508;49.150;11.030;2023-10-08T14:02:49;19.20;73.10
10911;DHT22;5508;49.150;11.030;2023-10-08T14:05:51;19.20;70.80
10911;DHT22;5508;49.150;11.030;2023-10-08T14:08:52;19.20;74.00
10911;DHT22;5508;49.150;11.030;2023-10-08T14:11:53;19.10;73.40
10911;DHT22;5508;49.150;11.030;2023-10-08T14:14:55;19.10;73.30
10911;DHT22;5508;49.150;11.030;2023-10-08T14:17:56;19.00;71.80
10911;DHT22;5508;49.150;11.030;2023-10-08T14:20:58;19.00;72.00
10911;DHT22;5508;49.150;11.030;2023-10-08T14:23:59;18.90;73.60
10911;DHT22;5508;49.150;11.030;2023-10-08T14:27:06;18.90;73.70
10911;DHT22;5508;49.150;11.030;2023-10-08T14:30:15;18.90;75.30
10911;DHT22;5508;49.150;11.030;2023-10-08T14:33:21;18.80;73.40
10911;DHT22;5508;49.150;11.030;2023-10-08T14:36:27;18.70;76.20
10911;DHT22;5508;49.150;11.030;2023-10-08T14:39:46;18.70;78.10
10911;DHT22;5508;49.150;11.030;2023-10-08T14:43:05;18.70;77.50
10911;DHT22;5508;49.150;11.030;2023-10-08T14:46:06;18.70;77.30
10911;DHT22;5508;49.150;11.030;2023-10-08T14:49:09;18.70;74.60
10911;DHT22;5508;49.150;11.030;2023-10-08T14:52:11;18.60;75.20
10911;DHT22;5508;49.150;11.030;2023-10-08T14:55:12;18.50;76.40
10911;DHT22;5508;49.150;11.030;2023-10-08T14:58:13;18.50;77.50
10911;DHT22;5508;49.150;11.030;2023-10-08T15:01:14;18.40;78.90
10911;DHT22;5508;49.150;11.030;2023-10-08T15:04:15;18.40;77.20
10911;DHT22;5508;49.150;11.030;2023-10-08T15:07:16;18.40;76.60
10911;DHT22;5508;49.150;11.030;2023-10-08T15:10:19;18.30;76.80
10911;DHT22;5508;49.150;11.030;2023-10-08T15:13:21;18.20;78.00
10911;DHT22;5508;49.150;11.030;2023-10-08T15:16:22;18.10;77.10
10911;DHT22;5508;49.150;11.030;2023-10-08T15:19:24;18.10;80.30
10911;DHT22;5508;49.150;11.030;2023-10-08T15:22:25;18.00;81.10
10911;DHT22;5508;49.150;11.030;2023-10-08T15:25:26;18.10;79.10
10911;DHT22;5508;49.150;11.030;2023-10-08T15:28:26;18.00;79.80
10911;DHT22;5508;49.150;11.030;2023-10-08T15:31:27;18.00;78.90
10911;DHT22;5508;49.150;11.030;2023-10-08T15:34:27;18.00;79.80
10911;DHT22;5508;49.150;11.030;2023-10-08T15:37:29;18.00;80.20
10911;DHT22;5508;49.150;11.030;2023-10-08T15:40:29;18.00;80.10
10911;DHT22;5508;49.150;11.030;2023-10-08T15:43:31;18.00;83.70
10911;DHT22;5508;49.150;11.030;2023-10-08T15:46:34;17.90;80.80
10911;DHT22;5508;49.150;11.030;2023-10-08T15:49:35;17.90;82.40
10911;DHT22;5508;49.150;11.030;2023-10-08T15:52:38;17.90;80.50
10911;DHT22;5508;49.150;11.030;2023-10-08T15:55:40;17.90;80.50
10911;DHT22;5508;49.150;11.030;2023-10-08T15:58:42;17.80;81.50
10911;DHT22;5508;49.150;11.030;2023-10-08T16:01:43;17.80;81.70
10911;DHT22;5508;49.150;11.030;2023-10-08T16:04:46;17.70;83.40
10911;DHT22;5508;49.150;11.030;2023-10-08T16:07:47;17.70;82.90
10911;DHT22;5508;49.150;11.030;2023-10-08T16:10:49;17.60;83.30
10911;DHT22;5508;49.150;11.030;2023-10-08T16:13:49;17.50;84.50
10911;DHT22;5508;49.150;11.030;2023-10-08T16:16:50;17.40;87.20
10911;DHT22;5508;49.150;11.030;2023-10-08T16:19:51;17.30;87.70
10911;DHT22;5508;49.150;11.030;2023-10-08T16:22:51;17.20;88.80
10911;DHT22;5508;49.150;11.030;2023-10-08T16:25:53;17.00;89.20
10911;DHT22;5508;49.150;11.030;2023-10-08T16:28:54;16.80;90.40
10911;DHT22;5508;49.150;11.030;2023-10-08T16:31:54;16.60;91.50
10911;DHT22;5508;49.150;11.030;2023-10-08T16:34:55;16.50;92.50
10911;DHT22;5508;49.150;11.030;2023-10-08T16:37:56;16.30;94.00
10911;DHT22;5508;49.150;11.030;2023-10-08T16:40:57;16.20;92.80
10911;DHT22;5508;49.150;11.030;2023-10-08T16:43:58;16.10;94.30
10911;DHT22;5508;49.150;11.030;2023-10-08T16:46:58;16.00;96.30
10911;DHT22;5508;49.150;11.030;2023-10-08T16:49:59;15.90;97.20
10911;DHT22;5508;49.150;11.030;2023-10-08T16:53:00;15.80;97.90
10911;DHT22;5508;49.150;11.030;2023-10-08T16:56:00;15.70;99.30
10911;DHT22;5508;49.150;11.030;2023-10-08T16:59:01;15.60;99.90
10911;DHT22;5508;49.150;11.030;2023-10-08T17:02:03;15.40;99.90
10911;DHT22;5508;49.150;11.030;2023-10-08T17:05:04;15.30;99.90
10911;DHT22;5508;49.150;11.030;2023-10-08T17:08:05;15.20;99.90
10911;DHT22;5508;49.150;11.030;2023-10-08T17:11:06;15.00;99.90
10911;DHT22;5508;49.150;11.030;2023-10-08T17:14:07;14.90;99.90
10911;DHT22;5508;49.150;11.030;2023-10-08T17:17:07;14.80;99.90
10911;DHT22;5508;49.150;11.030;2023-10-08T17:20:08;14.70;99.90
10911;DHT22;5508;49.150;11.030;2023-10-08T17:23:10;14.70;99.90
10911;DHT22;5508;49.150;11.030;2023-10-08T17:26:10;14.50;99.90
10911;DHT22;5508;49.150;11.030;2023-10-08T17:29:11;14.50;99.90
10911;DHT22;5508;49.150;11.030;2023-10-08T17:32:12;14.40;99.90
10911;DHT22;5508;49.150;11.030;2023-10-08T17:35:12;14.30;99.90
10911;DHT22;5508;49.150;11.030;2023-10-08T17:38:13;14.30;99.90
10911;DHT22;5508;49.150;11.030;2023-10-08T17:41:14;14.30;99.90
10911;DHT22;5508;49.150;11.030;2023-10-08T17:44:15;14.30;99.90
10911;DHT22;5508;49.150;11.030;2023-10-08T17:47:15;14.30;99.90
10911;DHT22;5508;49.150;11.030;2023-10-08T17:50:16;14.20;99.90
10911;DHT22;5508;49.150;11.030;2023-10-08T17:53:17;14.20;99.90
10911;DHT22;5508;49.150;11.030;2023-10-08T17:56:19;14.20;99.90
10911;DHT22;5508;49.150;11.030;2023-10-08T17:59:20;14.20;99.90
10911;DHT22;5508;49.150;11.030;2023-10-08T18:02:23;14.20;99.90
10911;DHT22;5508;49.150;11.030;2023-10-08T18:05:23;14.20;99.90
10911;DHT22;5508;49.150;11.030;2023-10-08T18:08:27;14.20;99.90
10911;DHT22;5508;49.150;11.030;2023-10-08T18:11:29;14.20;99.90
10911;DHT22;5508;49.150;11.030;2023-10-08T18:14:30;14.20;99.90
10911;DHT22;5508;49.150;11.030;2023-10-08T18:17:30;14.20;99.90
10911;DHT22;5508;49.150;11.030;2023-10-08T18:20:31;14.20;99.90
10911;DHT22;5508;49.150;11.030;2023-10-08T18:23:36;14.10;99.90
10911;DHT22;5508;49.150;11.030;2023-10-08T18:26:39;14.10;99.90
10911;DHT22;5508;49.150;11.030;2023-10-08T18:29:43;14.10;99.90
10911;DHT22;5508;49.150;11.030;2023-10-08T18:32:44;14.00;99.90
10911;DHT22;5508;49.150;11.030;2023-10-08T18:35:44;14.00;99.90
10911;DHT22;5508;49.150;11.030;2023-10-08T18:38:45;13.90;99.90
10911;DHT22;5508;49.150;11.030;2023-10-08T18:41:46;13.90;99.90
10911;DHT22;5508;49.150;11.030;2023-10-08T18:44:46;13.90;99.90
10911;DHT22;5508;49.150;11.030;2023-10-08T18:47:48;13.80;99.90
10911;DHT22;5508;49.150;11.030;2023-10-08T18:50:49;13.80;99.90
10911;DHT22;5508;49.150;11.030;2023-10-08T18:53:51;13.70;99.90
10911;DHT22;5508;49.150;11.030;2023-10-08T18:56:51;13.60;99.90
10911;DHT22;5508;49.150;11.030;2023-10-08T18:59:52;13.60;99.90
10911;DHT22;5508;49.150;11.030;2023-10-08T19:02:52;13.50;99.90
10911;DHT22;5508;49.150;11.030;2023-10-08T19:05:55;13.50;99.90
10911;DHT22;5508;49.150;11.030;2023-10-08T19:08:56;13.50;99.90
10911;DHT22;5508;49.150;11.030;2023-10-08T19:11:58;13.40;99.90
10911;DHT22;5508;49.150;11.030;2023-10-08T19:15:01;13.30;99.90
10911;DHT22;5508;49.150;11.030;2023-10-08T19:18:02;13.30;99.90
10911;DHT22;5508;49.150;11.030;2023-10-08T19:21:05;13.20;99.90